Time;durP1;ratioP1;P1;durP2;ratioP2;P2;SDS_P1;SDS_P2;PMS_P1;PMS_P2;Temp;Humidity;BMP_temperature;BMP_pressure;BME280_temperature;BME280_humidity;BME280_pressure;Samples;Min_cycle;Max_cycle;Signal;HPM_P1;HPM_P2
2024/04/19 00:01:49;;;;;;;4.82;3.90;;;4.60;99.90;;;;;;5432225;26;20318;-85
2024/04/19 00:04:18;;;;;;;4.68;3.92;;;4.60;99.90;;;;;;5448155;26;20339;-83
2024/04/19 00:06:47;;;;;;;6.60;4.00;;;4.60;99.90;;;;;;5445388;26;20246;-84
2024/04/19 00:09:13;;;;;;;4.55;3.30;;;4.60;99.90;;;;;;5443784;26;20271;-84
2024/04/19 00:11:42;;;;;;;4.55;3.90;;;4.60;99.90;;;;;;5433747;26;20284;-84
2024/04/19 00:14:08;;;;;;;4.13;3.72;;;4.60;99.90;;;;;;5424171;26;20298;-84
2024/04/19 00:16:37;;;;;;;4.72;3.28;;;4.60;99.90;;;;;;5397304;26;20255;-84
2024/04/19 00:19:04;;;;;;;5.15;4.65;;;4.70;99.90;;;;;;5428300;26;20831;-83
2024/04/19 00:21:36;;;;;;;4.45;4.05;;;4.70;99.90;;;;;;5416021;26;21359;-84
2024/04/19 00:24:05;;;;;;;4.95;3.65;;;4.60;99.90;;;;;;5425176;26;20280;-84
2024/04/19 00:26:31;;;;;;;4.25;3.75;;;4.60;99.90;;;;;;5435377;26;21046;-83
2024/04/19 00:29:00;;;;;;;4.80;4.32;;;4.50;99.90;;;;;;5447645;26;20300;-83
2024/04/19 00:31:26;;;;;;;5.55;4.18;;;4.50;99.90;;;;;;5456966;26;20248;-84
2024/04/19 00:33:55;;;;;;;5.45;4.13;;;4.50;99.90;;;;;;5444076;26;20295;-84
2024/04/19 00:36:21;;;;;;;5.05;4.55;;;4.50;99.90;;;;;;5433074;26;20356;-84
2024/04/19 00:38:54;;;;;;;4.28;3.90;;;4.60;99.90;;;;;;5443912;26;20306;-84
2024/04/19 00:41:21;;;;;;;6.63;4.80;;;4.70;99.90;;;;;;5453914;26;20334;-84
2024/04/19 00:43:49;;;;;;;4.53;4.10;;;4.60;99.90;;;;;;5447679;26;20535;-85
2024/04/19 00:46:16;;;;;;;4.90;4.40;;;4.60;99.90;;;;;;5448170;26;20258;-83
2024/04/19 00:48:46;;;;;;;4.70;4.25;;;4.50;99.90;;;;;;5441179;26;20299;-83
2024/04/19 00:51:13;;;;;;;5.70;4.28;;;4.40;99.90;;;;;;5441218;26;20795;-83
2024/04/19 00:53:43;;;;;;;5.80;4.20;;;4.50;99.90;;;;;;5452680;26;20250;-83
2024/04/19 00:56:12;;;;;;;5.38;4.32;;;4.50;99.90;;;;;;5434014;26;20263;-83
2024/04/19 00:58:41;;;;;;;5.10;4.53;;;4.60;99.90;;;;;;5443544;26;20286;-83
2024/04/19 01:01:08;;;;;;;5.13;4.63;;;4.60;99.90;;;;;;5455073;26;20602;-84
2024/04/19 01:03:37;;;;;;;4.72;4.20;;;4.60;99.90;;;;;;5443399;26;20725;-84
2024/04/19 01:06:04;;;;;;;4.63;3.92;;;4.50;99.90;;;;;;5432667;26;20246;-84
2024/04/19 01:08:33;;;;;;;5.28;4.78;;;4.50;99.90;;;;;;5442718;26;20281;-83
2024/04/19 01:11:00;;;;;;;4.47;4.07;;;4.60;99.90;;;;;;5436152;26;20291;-83
2024/04/19 01:13:32;;;;;;;5.57;4.60;;;4.50;99.90;;;;;;5441364;26;20242;-82
2024/04/19 01:15:59;;;;;;;4.35;3.95;;;4.60;99.90;;;;;;5445834;26;20717;-83
2024/04/19 01:18:28;;;;;;;5.50;4.43;;;4.60;99.90;;;;;;5450616;26;20353;-84
2024/04/19 01:20:55;;;;;;;6.68;4.95;;;4.60;99.90;;;;;;5446992;26;20247;-83
2024/04/19 01:23:25;;;;;;;5.95;5.30;;;4.50;99.90;;;;;;5438370;26;20298;-84
2024/04/19 01:25:54;;;;;;;5.45;4.57;;;4.50;99.90;;;;;;5442132;26;20620;-84
2024/04/19 01:28:31;;;;;;;6.13;4.10;;;4.60;99.90;;;;;;5452410;26;20567;-84
2024/04/19 01:30:58;;;;;;;5.78;4.70;;;4.70;99.90;;;;;;5434354;26;20286;-83
2024/04/19 01:33:27;;;;;;;6.20;4.88;;;4.60;99.90;;;;;;5444470;26;20331;-84
2024/04/19 01:35:53;;;;;;;5.10;4.60;;;4.50;99.90;;;;;;5440454;26;20243;-83
2024/04/19 01:38:22;;;;;;;6.25;4.63;;;4.50;99.90;;;;;;5441943;26;20249;-84
2024/04/19 01:40:48;;;;;;;5.15;3.97;;;4.50;99.90;;;;;;5445359;26;20304;-83
2024/04/19 01:43:18;;;;;;;6.20;5.07;;;4.50;99.90;;;;;;5447547;26;20252;-83
2024/04/19 01:45:47;;;;;;;5.10;4.65;;;4.50;99.90;;;;;;5433596;26;20258;-83
2024/04/19 01:48:17;;;;;;;8.98;4.63;;;4.50;99.90;;;;;;5455166;26;20251;-83
2024/04/19 01:50:47;;;;;;;6.40;5.70;;;4.50;99.90;;;;;;5448152;26;20246;-83
2024/04/19 01:53:14;;;;;;;10.00;6.40;;;4.50;99.90;;;;;;5441545;26;20246;-83
2024/04/19 01:55:44;;;;;;;8.00;6.63;;;4.50;99.90;;;;;;5445688;26;20354;-83
2024/04/19 01:58:10;;;;;;;7.10;5.25;;;4.40;99.90;;;;;;5452955;26;20778;-83
2024/04/19 02:00:40;;;;;;;7.72;5.38;;;4.40;99.90;;;;;;5452158;26;20314;-83
2024/04/19 02:03:10;;;;;;;7.65;6.85;;;4.50;99.90;;;;;;5457672;26;20310;-84
2024/04/19 02:05:39;;;;;;;7.20;5.63;;;4.50;99.90;;;;;;5458386;26;20243;-84
2024/04/19 02:08:07;;;;;;;7.28;5.20;;;4.40;99.90;;;;;;5444025;26;20253;-84
2024/04/19 02:10:38;;;;;;;6.00;4.90;;;4.40;99.90;;;;;;5447191;26;20249;-84
2024/04/19 02:13:05;;;;;;;8.27;5.00;;;4.40;99.90;;;;;;5451575;26;20247;-83
2024/04/19 02:15:38;;;;;;;6.95;5.85;;;4.40;99.90;;;;;;5444419;26;20800;-83
2024/04/19 02:18:05;;;;;;;6.07;5.18;;;4.40;99.90;;;;;;5446080;26;20643;-83
2024/04/19 02:20:37;;;;;;;5.90;4.80;;;4.50;99.90;;;;;;5449630;26;20243;-83
2024/04/19 02:23:04;;;;;;;5.32;4.80;;;4.40;99.90;;;;;;5449085;26;20243;-83
2024/04/19 02:25:32;;;;;;;7.90;5.30;;;4.30;99.90;;;;;;5444345;26;20241;-83
2024/04/19 02:30:59;;;;;;;6.05;5.40;;;4.40;99.90;;;;;;5424568;26;20392;-83
2024/04/19 02:33:29;;;;;;;6.47;5.75;;;4.40;99.90;;;;;;5426020;26;20744;-83
2024/04/19 02:36:01;;;;;;;6.97;5.35;;;4.40;99.90;;;;;;5456761;26;20727;-83
2024/04/19 02:38:31;;;;;;;7.07;5.20;;;4.50;99.90;;;;;;5443012;26;20755;-84
2024/04/19 02:40:59;;;;;;;8.35;5.60;;;4.50;99.90;;;;;;5448295;26;20247;-83
2024/04/19 02:43:28;;;;;;;5.90;4.65;;;4.50;99.90;;;;;;5443330;26;20286;-84
2024/04/19 02:45:58;;;;;;;8.93;5.72;;;4.40;99.90;;;;;;5445212;26;20255;-83
2024/04/19 02:48:24;;;;;;;8.82;6.65;;;4.60;99.90;;;;;;5440180;26;20259;-84
2024/04/19 02:50:53;;;;;;;7.78;6.40;;;4.60;99.90;;;;;;5446776;26;20290;-83
2024/04/19 02:53:25;;;;;;;9.65;7.55;;;4.60;99.90;;;;;;5449015;26;20251;-83
2024/04/19 02:55:54;;;;;;;13.60;6.70;;;4.50;99.90;;;;;;5454425;26;20719;-84
2024/04/19 02:58:22;;;;;;;7.15;5.38;;;4.60;99.90;;;;;;5440668;26;20264;-83
2024/04/19 03:00:51;;;;;;;7.88;6.05;;;4.60;99.90;;;;;;5461477;26;20384;-83
2024/04/19 03:03:20;;;;;;;6.80;5.93;;;4.60;99.90;;;;;;5443116;26;20251;-83
2024/04/19 03:05:50;;;;;;;8.38;6.45;;;4.70;99.90;;;;;;5440627;26;20256;-83
2024/04/19 03:08:19;;;;;;;8.75;5.70;;;4.70;99.90;;;;;;5441032;26;20787;-84
2024/04/19 03:10:51;;;;;;;7.63;5.82;;;4.70;99.90;;;;;;5436455;26;20242;-83
2024/04/19 03:13:20;;;;;;;8.60;6.50;;;4.70;99.90;;;;;;5442643;26;20270;-83
2024/04/19 03:15:48;;;;;;;7.10;6.30;;;4.70;99.90;;;;;;5451623;26;20255;-83
2024/04/19 03:18:17;;;;;;;9.82;6.07;;;4.70;99.90;;;;;;5452257;26;20618;-83
2024/04/19 03:20:46;;;;;;;9.20;6.13;;;4.70;99.90;;;;;;5445762;26;20246;-83
2024/04/19 03:23:15;;;;;;;7.88;5.30;;;4.80;99.90;;;;;;5461802;26;20647;-83
2024/04/19 03:25:44;;;;;;;6.47;5.25;;;4.80;99.90;;;;;;5448113;26;20280;-83
2024/04/19 03:28:15;;;;;;;7.80;5.97;;;4.80;99.90;;;;;;5456353;26;20247;-84
2024/04/19 03:30:44;;;;;;;9.82;5.93;;;4.90;99.90;;;;;;5442504;26;20301;-83
2024/04/19 03:33:13;;;;;;;10.75;6.03;;;4.80;99.90;;;;;;5446318;26;20240;-83
2024/04/19 03:35:44;;;;;;;7.22;5.85;;;4.90;99.90;;;;;;5441761;26;20246;-83
2024/04/19 03:38:14;;;;;;;7.43;5.82;;;5.00;99.90;;;;;;5441891;26;20246;-83
2024/04/19 03:40:43;;;;;;;8.05;6.50;;;4.90;99.90;;;;;;5447848;26;20338;-83
2024/04/19 03:43:12;;;;;;;9.65;5.72;;;4.90;99.90;;;;;;5448846;26;20813;-83
2024/04/19 03:45:41;;;;;;;8.48;6.03;;;4.90;99.90;;;;;;5449313;26;20778;-83
2024/04/19 03:48:11;;;;;;;8.20;5.43;;;4.90;99.90;;;;;;5443223;26;20759;-83
2024/04/19 03:50:40;;;;;;;8.27;6.03;;;4.90;99.90;;;;;;5452612;26;20251;-83
2024/04/19 03:53:09;;;;;;;8.98;6.75;;;4.80;99.90;;;;;;5437620;26;20253;-83
2024/04/19 03:55:38;;;;;;;6.63;5.65;;;4.80;99.90;;;;;;5445255;26;21031;-83
2024/04/19 03:58:07;;;;;;;7.15;5.82;;;4.90;99.90;;;;;;5463644;26;20259;-83
2024/04/19 04:00:40;;;;;;;7.13;5.13;;;4.90;99.90;;;;;;5452612;26;20274;-84
2024/04/19 04:03:12;;;;;;;12.18;7.78;;;4.90;99.90;;;;;;5440416;26;20296;-84
2024/04/19 04:05:38;;;;;;;8.55;6.38;;;4.90;99.90;;;;;;5446942;26;20278;-83
2024/04/19 04:08:07;;;;;;;7.68;6.82;;;4.90;99.90;;;;;;5444654;26;20780;-83
2024/04/19 04:10:37;;;;;;;10.73;5.75;;;5.00;99.90;;;;;;5458832;26;20250;-84
2024/04/19 04:13:06;;;;;;;7.28;5.90;;;5.00;99.90;;;;;;5445570;26;20255;-83
2024/04/19 04:15:35;;;;;;;7.45;4.93;;;5.00;99.90;;;;;;5454974;26;20257;-84
2024/04/19 04:18:05;;;;;;;7.25;5.45;;;4.90;99.70;;;;;;5443337;26;20271;-84
2024/04/19 04:20:36;;;;;;;7.15;5.40;;;4.90;99.60;;;;;;5434861;26;20247;-84
2024/04/19 04:23:05;;;;;;;5.90;5.40;;;4.90;99.90;;;;;;5448538;26;20277;-84
2024/04/19 04:25:36;;;;;;;6.93;5.68;;;4.90;99.90;;;;;;5443247;26;20257;-83
2024/04/19 04:28:06;;;;;;;9.10;5.88;;;4.90;99.90;;;;;;5439632;26;20303;-83
2024/04/19 04:30:35;;;;;;;7.05;6.30;;;4.90;99.70;;;;;;5442440;26;20288;-84
2024/04/19 04:33:04;;;;;;;7.43;5.97;;;4.90;99.90;;;;;;5466255;26;20245;-83
2024/04/19 04:35:36;;;;;;;8.77;7.18;;;4.90;99.90;;;;;;5452489;26;20317;-84
2024/04/19 04:38:05;;;;;;;6.38;5.68;;;5.00;99.90;;;;;;5456175;26;20255;-84
2024/04/19 04:40:35;;;;;;;7.38;5.93;;;5.10;99.90;;;;;;5458252;26;20272;-84
2024/04/19 04:43:04;;;;;;;8.85;6.03;;;5.00;99.50;;;;;;5447890;26;20246;-77
2024/04/19 04:45:33;;;;;;;7.53;4.85;;;5.00;99.90;;;;;;5464981;26;20310;-77
2024/04/19 04:48:02;;;;;;;8.75;6.75;;;5.00;99.90;;;;;;5448586;26;20283;-77
2024/04/19 04:50:31;;;;;;;9.80;6.25;;;5.10;99.70;;;;;;5455759;26;20758;-77
2024/04/19 04:53:04;;;;;;;8.27;6.95;;;5.10;99.60;;;;;;5456627;26;20257;-77
2024/04/19 04:55:33;;;;;;;19.48;7.60;;;5.10;99.50;;;;;;5443240;26;20242;-77
2024/04/19 04:58:04;;;;;;;8.35;6.38;;;5.10;99.30;;;;;;5448601;26;20270;-77
2024/04/19 05:00:33;;;;;;;8.18;6.70;;;5.10;99.30;;;;;;5451811;26;20331;-77
2024/04/19 05:03:04;;;;;;;7.57;6.13;;;5.10;99.50;;;;;;5432433;26;20617;-80
2024/04/19 05:05:32;;;;;;;8.70;7.05;;;5.20;99.70;;;;;;5433954;26;20293;-76
2024/04/19 05:08:04;;;;;;;7.82;6.28;;;5.20;99.60;;;;;;5462509;26;20723;-75
2024/04/19 05:10:33;;;;;;;8.38;6.60;;;5.20;99.40;;;;;;5450019;26;20600;-75
2024/04/19 05:13:02;;;;;;;6.82;6.03;;;5.20;99.50;;;;;;5459658;26;20273;-74
2024/04/19 05:15:31;;;;;;;8.75;5.80;;;5.20;99.40;;;;;;5451817;26;20727;-75
2024/04/19 05:18:00;;;;;;;7.75;6.57;;;5.20;99.60;;;;;;5452728;26;20294;-72
2024/04/19 05:20:28;;;;;;;9.15;6.60;;;5.20;99.70;;;;;;5464783;26;20269;-72
2024/04/19 05:22:57;;;;;;;7.22;5.47;;;5.20;99.20;;;;;;5477047;26;20329;-73
2024/04/19 05:25:29;;;;;;;10.63;6.07;;;5.20;99.90;;;;;;5468655;26;20342;-77
2024/04/19 05:27:57;;;;;;;9.70;6.38;;;5.10;99.50;;;;;;5468112;26;20246;-74
2024/04/19 05:30:27;;;;;;;8.65;6.10;;;5.10;99.60;;;;;;5471285;26;20691;-75
2024/04/19 05:32:56;;;;;;;8.00;5.22;;;5.20;99.70;;;;;;5472867;26;20739;-77
2024/04/19 05:35:26;;;;;;;7.65;5.80;;;5.10;99.40;;;;;;5431634;26;20269;-77
2024/04/19 05:37:58;;;;;;;7.30;5.60;;;5.20;99.40;;;;;;5446798;26;20316;-79
2024/04/19 05:40:35;;;;;;;8.45;6.10;;;5.20;99.40;;;;;;5457524;26;20273;-78
2024/04/19 05:43:07;;;;;;;7.70;7.00;;;5.10;99.70;;;;;;5444773;26;20267;-79
2024/04/19 05:45:37;;;;;;;10.82;6.60;;;5.20;99.90;;;;;;5411684;26;20692;-78
2024/04/19 05:48:07;;;;;;;9.25;6.25;;;5.20;99.90;;;;;;5450331;26;20354;-78
2024/04/19 05:50:35;;;;;;;9.75;6.32;;;5.30;99.60;;;;;;5477415;26;20241;-78
2024/04/19 05:53:04;;;;;;;6.00;5.22;;;5.40;99.60;;;;;;5458525;26;20242;-79
2024/04/19 05:55:36;;;;;;;5.95;5.18;;;5.40;99.10;;;;;;5464158;26;20251;-78
2024/04/19 05:58:05;;;;;;;9.98;6.97;;;5.30;99.00;;;;;;5459052;26;20282;-78
2024/04/19 06:00:34;;;;;;;5.68;4.80;;;5.40;99.40;;;;;;5463633;26;20247;-77
2024/04/19 06:03:02;;;;;;;7.90;5.57;;;5.50;99.60;;;;;;5452543;26;20274;-77
2024/04/19 06:05:32;;;;;;;5.80;5.30;;;5.50;99.00;;;;;;5466263;26;20265;-77
2024/04/19 06:08:00;;;;;;;6.65;4.88;;;5.40;98.70;;;;;;5476634;26;20254;-76
2024/04/19 06:10:29;;;;;;;7.15;5.78;;;5.50;98.70;;;;;;5452113;26;20246;-77
2024/04/19 06:13:01;;;;;;;6.15;5.55;;;5.60;99.00;;;;;;5468568;26;20246;-77
2024/04/19 06:15:29;;;;;;;5.95;5.25;;;5.60;99.20;;;;;;5458081;26;20244;-77
2024/04/19 06:17:59;;;;;;;6.63;5.50;;;5.70;99.10;;;;;;5453786;26;20268;-76
2024/04/19 06:20:28;;;;;;;5.78;4.60;;;5.70;98.60;;;;;;5453349;26;20258;-77
2024/04/19 06:22:57;;;;;;;7.97;5.70;;;5.80;98.70;;;;;;5454593;26;20713;-75
2024/04/19 06:25:26;;;;;;;5.93;5.43;;;5.90;99.00;;;;;;5445709;26;20585;-75
2024/04/19 06:27:54;;;;;;;7.72;5.45;;;5.90;98.80;;;;;;5446221;26;20244;-75
2024/04/19 06:30:27;;;;;;;6.03;4.47;;;5.90;97.90;;;;;;5474424;26;20269;-75
2024/04/19 06:32:56;;;;;;;4.32;3.83;;;6.00;98.60;;;;;;5475848;26;20255;-75
2024/04/19 06:35:25;;;;;;;7.93;6.20;;;6.00;98.10;;;;;;5463749;26;20244;-75
2024/04/19 06:37:53;;;;;;;6.28;4.78;;;6.00;98.20;;;;;;5458408;26;20269;-75
2024/04/19 06:40:22;;;;;;;4.57;4.18;;;6.20;98.40;;;;;;5470233;26;20359;-75
2024/04/19 06:42:51;;;;;;;6.60;5.15;;;6.20;98.00;;;;;;5449628;26;20252;-76
2024/04/19 06:45:20;;;;;;;4.63;4.18;;;6.20;97.20;;;;;;5448255;26;20255;-75
2024/04/19 06:47:51;;;;;;;7.88;5.43;;;6.10;96.80;;;;;;5474061;26;20714;-75
2024/04/19 06:50:20;;;;;;;6.00;3.97;;;6.10;97.00;;;;;;5485049;26;20267;-75
2024/04/19 06:52:49;;;;;;;4.70;4.10;;;6.20;97.70;;;;;;5481418;26;20285;-74
2024/04/19 06:55:18;;;;;;;5.00;3.85;;;6.30;97.60;;;;;;5480073;26;20255;-74
2024/04/19 06:57:47;;;;;;;5.15;4.65;;;6.40;97.30;;;;;;5459101;26;20244;-75
2024/04/19 07:00:16;;;;;;;4.72;3.47;;;6.40;96.90;;;;;;5447966;26;20251;-75
2024/04/19 07:02:49;;;;;;;4.93;4.40;;;6.50;97.00;;;;;;5475401;26;20240;-75
2024/04/19 07:05:21;;;;;;;6.07;4.25;;;6.60;97.00;;;;;;5475363;26;20251;-75
2024/04/19 07:07:50;;;;;;;8.50;4.40;;;6.60;96.10;;;;;;5449553;26;20243;-75
2024/04/19 07:10:22;;;;;;;6.35;3.42;;;6.50;96.00;;;;;;5449070;26;20584;-75
2024/04/19 07:12:51;;;;;;;4.50;3.90;;;6.70;96.70;;;;;;5473841;26;20239;-75
2024/04/19 07:15:20;;;;;;;3.97;3.58;;;6.70;96.10;;;;;;5466445;26;20340;-75
2024/04/19 07:17:52;;;;;;;4.70;3.92;;;6.80;96.50;;;;;;5461418;26;20247;-75
2024/04/19 07:20:24;;;;;;;7.18;4.28;;;6.80;96.20;;;;;;5448004;26;20269;-75
2024/04/19 07:22:54;;;;;;;5.00;4.25;;;6.80;97.00;;;;;;5477117;26;20269;-75
2024/04/19 07:25:25;;;;;;;4.38;3.95;;;6.80;96.30;;;;;;5482673;26;20243;-75
2024/04/19 07:27:53;;;;;;;4.50;3.97;;;6.70;97.10;;;;;;5483657;26;20243;-75
2024/04/19 07:30:22;;;;;;;6.55;4.47;;;6.80;97.50;;;;;;5483094;26;20637;-75
2024/04/19 07:32:51;;;;;;;4.47;3.67;;;6.80;97.10;;;;;;5485244;26;20294;-75
2024/04/19 07:35:23;;;;;;;4.90;3.88;;;6.80;97.20;;;;;;5446732;26;20239;-75
2024/04/19 07:37:52;;;;;;;5.22;4.10;;;6.60;97.10;;;;;;5449001;26;20773;-75
2024/04/19 07:40:20;;;;;;;4.55;4.15;;;6.60;98.10;;;;;;5460051;26;20262;-75
2024/04/19 07:42:49;;;;;;;5.20;3.97;;;6.70;98.50;;;;;;5448901;26;20248;-75
2024/04/19 07:45:22;;;;;;;4.20;3.80;;;6.70;98.20;;;;;;5481604;26;20286;-74
2024/04/19 07:47:52;;;;;;;5.00;4.30;;;6.60;98.30;;;;;;5485039;26;20274;-75
2024/04/19 07:50:26;;;;;;;5.35;4.05;;;6.60;98.20;;;;;;5471600;26;20267;-76
2024/04/19 07:52:55;;;;;;;5.13;4.10;;;6.60;98.30;;;;;;5471427;26;20270;-75
2024/04/19 07:55:24;;;;;;;8.80;3.90;;;6.70;99.10;;;;;;5463590;26;20344;-75
2024/04/19 07:57:53;;;;;;;5.00;4.05;;;6.70;98.80;;;;;;5449415;26;20244;-75
2024/04/19 08:00:24;;;;;;;6.05;5.00;;;6.50;98.90;;;;;;5479020;26;20885;-75
2024/04/19 08:02:52;;;;;;;5.55;4.30;;;6.60;99.20;;;;;;5477023;26;20290;-75
2024/04/19 08:05:21;;;;;;;4.25;3.85;;;6.50;99.10;;;;;;5463888;26;20587;-75
2024/04/19 08:07:56;;;;;;;6.53;4.53;;;6.30;98.80;;;;;;5448471;26;20275;-75
2024/04/19 08:10:25;;;;;;;5.63;4.30;;;6.30;99.90;;;;;;5448489;26;20240;-75
2024/04/19 08:12:54;;;;;;;4.15;3.72;;;6.20;99.00;;;;;;5448568;26;20244;-75
2024/04/19 08:15:23;;;;;;;5.68;4.70;;;6.20;99.00;;;;;;5464318;26;20837;-75
2024/04/19 08:17:52;;;;;;;3.58;3.28;;;6.20;99.30;;;;;;5475923;26;20246;-75
2024/04/19 08:20:18;;;;;;;4.70;4.20;;;6.30;99.50;;;;;;5471426;26;20269;-75
2024/04/19 08:22:47;;;;;;;7.60;4.57;;;6.40;99.90;;;;;;5471299;26;20291;-75
2024/04/19 08:25:19;;;;;;;4.28;3.80;;;6.50;99.90;;;;;;5471717;26;20239;-75
2024/04/19 08:27:48;;;;;;;7.82;3.88;;;6.60;99.90;;;;;;5475939;26;20236;-75
2024/04/19 08:30:17;;;;;;;3.50;3.20;;;6.60;99.90;;;;;;5481195;26;20239;-75
2024/04/19 08:32:46;;;;;;;4.30;3.40;;;6.40;99.20;;;;;;5474362;26;20239;-75
2024/04/19 08:35:14;;;;;;;5.03;3.83;;;6.50;99.90;;;;;;5471481;26;20829;-75
2024/04/19 08:37:43;;;;;;;4.43;3.78;;;6.40;99.90;;;;;;5473323;26;20236;-75
2024/04/19 08:40:14;;;;;;;4.88;4.40;;;6.40;99.90;;;;;;5469993;26;20244;-75
2024/04/19 08:42:45;;;;;;;4.88;3.50;;;6.40;99.90;;;;;;5448283;26;20248;-75
2024/04/19 08:45:16;;;;;;;4.40;3.80;;;6.20;99.90;;;;;;5447022;26;20275;-75
2024/04/19 08:47:44;;;;;;;8.38;4.13;;;6.40;99.90;;;;;;5445349;26;20263;-75
2024/04/19 08:50:13;;;;;;;3.90;3.55;;;6.30;99.90;;;;;;5451647;26;20253;-74
2024/04/19 08:52:43;;;;;;;5.03;4.10;;;6.10;99.90;;;;;;5462153;26;20235;-74
2024/04/19 08:55:14;;;;;;;5.00;3.67;;;6.00;99.90;;;;;;5465608;26;20244;-74
2024/04/19 08:57:46;;;;;;;4.60;4.10;;;5.90;99.90;;;;;;5456902;26;20248;-72
2024/04/19 09:00:15;;;;;;;5.07;3.55;;;5.90;99.90;;;;;;5458702;26;20278;-72
2024/04/19 09:02:44;;;;;;;4.00;3.70;;;5.70;99.90;;;;;;5448490;26;20255;-73
2024/04/19 09:05:13;;;;;;;4.15;3.70;;;5.60;99.90;;;;;;5463370;26;20244;-73
2024/04/19 09:07:43;;;;;;;4.40;4.00;;;5.60;99.90;;;;;;5454086;26;20244;-73
2024/04/19 09:10:13;;;;;;;4.88;4.13;;;5.60;99.90;;;;;;5461872;26;20282;-73
2024/04/19 09:12:45;;;;;;;3.70;3.40;;;5.50;99.90;;;;;;5468198;26;20350;-73
2024/04/19 09:15:14;;;;;;;4.90;3.50;;;5.60;99.90;;;;;;5466243;26;20288;-74
2024/04/19 09:17:43;;;;;;;5.05;4.15;;;5.70;99.90;;;;;;5461618;26;20281;-73
2024/04/19 09:20:13;;;;;;;5.25;4.22;;;5.70;99.90;;;;;;5471592;26;20289;-73
2024/04/19 09:22:42;;;;;;;4.82;4.25;;;5.60;99.90;;;;;;5436074;26;20249;-73
2024/04/19 09:25:10;;;;;;;5.05;4.35;;;5.40;99.90;;;;;;5470966;26;20243;-73
2024/04/19 09:27:40;;;;;;;4.32;3.90;;;5.60;99.90;;;;;;5482320;26;20251;-73
2024/04/19 09:30:14;;;;;;;7.10;4.85;;;5.70;99.90;;;;;;5478523;26;20250;-73
2024/04/19 09:32:43;;;;;;;5.05;4.53;;;5.60;99.90;;;;;;5476136;26;20242;-73
2024/04/19 09:35:12;;;;;;;4.68;4.00;;;5.70;99.90;;;;;;5475791;26;20253;-73
2024/04/19 09:37:43;;;;;;;6.22;4.20;;;5.60;99.90;;;;;;5477372;26;20249;-73
2024/04/19 09:40:15;;;;;;;5.53;4.72;;;5.70;99.90;;;;;;5474934;26;20428;-73
2024/04/19 09:42:49;;;;;;;5.95;4.03;;;5.60;99.90;;;;;;5470640;26;20272;-73
2024/04/19 09:45:24;;;;;;;6.35;4.70;;;5.60;99.90;;;;;;5479800;26;20245;-73
2024/04/19 09:47:56;;;;;;;5.13;4.28;;;5.50;99.90;;;;;;5476977;26;20245;-72
2024/04/19 09:50:32;;;;;;;5.30;4.03;;;5.60;99.90;;;;;;5478001;26;20243;-73
2024/04/19 09:53:03;;;;;;;6.15;5.03;;;5.60;99.90;;;;;;5477322;26;20271;-73
2024/04/19 09:55:43;;;;;;;5.63;5.10;;;5.60;99.90;;;;;;5477245;26;20831;-73
2024/04/19 09:58:12;;;;;;;5.75;4.70;;;5.60;99.90;;;;;;5450465;26;20246;-72
2024/04/19 10:00:45;;;;;;;6.22;4.65;;;5.40;99.90;;;;;;5471919;26;20567;-72
2024/04/19 10:03:18;;;;;;;5.57;4.65;;;5.40;99.90;;;;;;5461249;26;20242;-72
2024/04/19 10:05:48;;;;;;;7.88;4.53;;;5.20;99.90;;;;;;5444761;26;20865;-72
2024/04/19 10:08:18;;;;;;;5.28;4.78;;;5.20;99.90;;;;;;5449444;26;20755;-72
2024/04/19 10:10:47;;;;;;;7.70;5.78;;;5.20;99.90;;;;;;5447979;26;20255;-72
2024/04/19 10:13:16;;;;;;;5.57;5.00;;;5.30;99.90;;;;;;5480024;26;20352;-72
2024/04/19 10:15:48;;;;;;;12.90;5.20;;;5.40;99.90;;;;;;5459448;26;20254;-72
2024/04/19 10:18:18;;;;;;;6.20;5.45;;;5.40;99.90;;;;;;5480018;26;20245;-72
2024/04/19 10:20:47;;;;;;;6.50;5.55;;;5.50;99.90;;;;;;5464116;26;20253;-72
2024/04/19 10:23:18;;;;;;;8.13;5.82;;;5.40;99.90;;;;;;5462288;26;20268;-72
2024/04/19 10:25:48;;;;;;;7.75;6.47;;;5.40;99.90;;;;;;5483026;26;20338;-72
2024/04/19 10:28:19;;;;;;;7.07;5.47;;;5.40;99.90;;;;;;5467878;26;20274;-72
2024/04/19 10:30:51;;;;;;;7.72;6.20;;;5.40;99.90;;;;;;5470501;26;20805;-72
2024/04/19 10:33:20;;;;;;;6.85;5.95;;;5.40;99.90;;;;;;5481885;26;20249;-72
2024/04/19 10:35:49;;;;;;;8.23;6.95;;;5.50;99.90;;;;;;5472142;26;20659;-72
2024/04/19 10:38:19;;;;;;;8.27;5.97;;;5.50;99.90;;;;;;5477615;26;20813;-72
2024/04/19 10:40:48;;;;;;;6.40;5.80;;;5.50;99.90;;;;;;5460517;26;20283;-72
2024/04/19 10:43:17;;;;;;;7.82;6.43;;;5.50;99.90;;;;;;5468956;26;20246;-72
2024/04/19 10:45:51;;;;;;;7.88;6.65;;;5.60;99.90;;;;;;5474799;26;20249;-72
2024/04/19 10:48:21;;;;;;;6.93;6.00;;;5.60;99.90;;;;;;5453798;26;20246;-72
2024/04/19 10:50:50;;;;;;;8.82;5.50;;;5.60;99.90;;;;;;5473481;26;20273;-72
2024/04/19 10:53:21;;;;;;;7.20;6.32;;;5.60;99.90;;;;;;5478416;26;20262;-72
2024/04/19 10:55:50;;;;;;;7.15;6.07;;;5.50;99.90;;;;;;5474769;26;20770;-72
2024/04/19 10:58:16;;;;;;;6.68;5.82;;;5.70;99.90;;;;;;5470427;26;20276;-72
2024/04/19 11:00:47;;;;;;;6.63;5.35;;;5.80;99.90;;;;;;5470122;26;20714;-72
2024/04/19 11:03:18;;;;;;;6.65;5.55;;;5.70;99.90;;;;;;5467419;26;20276;-72
2024/04/19 11:05:47;;;;;;;7.57;5.70;;;5.90;99.90;;;;;;5459240;26;20249;-72
2024/04/19 11:08:17;;;;;;;5.40;4.78;;;5.80;99.90;;;;;;5465419;26;20239;-71
2024/04/19 11:10:47;;;;;;;6.18;5.07;;;5.80;99.90;;;;;;5453685;26;20301;-72
2024/04/19 11:13:16;;;;;;;6.20;4.50;;;5.90;99.90;;;;;;5463295;26;20258;-73
2024/04/19 11:15:45;;;;;;;6.05;4.25;;;5.70;99.90;;;;;;5453000;26;20570;-73
2024/04/19 11:18:14;;;;;;;4.68;3.85;;;5.70;99.90;;;;;;5454303;26;20278;-73
2024/04/19 11:20:46;;;;;;;6.18;4.90;;;5.70;99.90;;;;;;5441711;26;20641;-73
2024/04/19 11:23:15;;;;;;;5.10;4.60;;;5.60;99.90;;;;;;5468421;26;20306;-73
2024/04/19 11:25:44;;;;;;;5.38;3.70;;;5.60;99.90;;;;;;5458910;26;20247;-72
2024/04/19 11:28:14;;;;;;;5.57;3.88;;;5.40;99.90;;;;;;5463025;26;20327;-72
2024/04/19 11:30:43;;;;;;;5.25;3.80;;;5.50;99.90;;;;;;5463093;26;20591;-72
2024/04/19 11:33:12;;;;;;;5.82;3.65;;;5.70;99.90;;;;;;5452798;26;20251;-72
2024/04/19 11:35:42;;;;;;;3.58;3.20;;;5.50;99.90;;;;;;5448968;26;20416;-72
2024/04/19 11:38:15;;;;;;;3.28;2.97;;;5.50;99.90;;;;;;5449340;26;20243;-73
2024/04/19 11:40:44;;;;;;;3.53;3.22;;;5.50;99.90;;;;;;5460400;26;20338;-73
2024/04/19 11:43:13;;;;;;;5.28;4.35;;;5.50;99.90;;;;;;5449482;26;20267;-73
2024/04/19 11:45:45;;;;;;;4.30;3.50;;;5.40;99.90;;;;;;5448257;26;20818;-72
2024/04/19 11:48:22;;;;;;;5.47;3.20;;;5.40;99.90;;;;;;5470793;26;20280;-73
2024/04/19 11:50:51;;;;;;;3.67;2.80;;;5.40;99.90;;;;;;5474405;26;20253;-73
2024/04/19 11:53:23;;;;;;;5.05;3.08;;;5.40;99.90;;;;;;5474281;26;20244;-73
2024/04/19 11:55:52;;;;;;;3.38;3.00;;;5.40;99.90;;;;;;5476756;26;20281;-73
2024/04/19 11:58:19;;;;;;;3.88;2.80;;;5.30;99.90;;;;;;5447796;26;20285;-73
2024/04/19 12:00:48;;;;;;;3.70;3.17;;;5.10;99.90;;;;;;5448734;26;20241;-73
2024/04/19 12:03:17;;;;;;;6.38;4.30;;;5.10;99.90;;;;;;5471992;26;20250;-73
2024/04/19 12:05:45;;;;;;;4.55;2.47;;;5.10;99.90;;;;;;5474225;26;20787;-73
2024/04/19 12:08:14;;;;;;;3.10;2.60;;;5.10;99.90;;;;;;5475472;26;20274;-74
2024/04/19 12:10:46;;;;;;;3.67;2.50;;;5.10;99.90;;;;;;5480733;26;20244;-74
2024/04/19 12:13:15;;;;;;;3.60;3.22;;;5.00;99.90;;;;;;5482065;26;20248;-73
2024/04/19 12:15:44;;;;;;;6.78;5.13;;;5.10;99.90;;;;;;5471244;26;20275;-73
2024/04/19 12:18:13;;;;;;;2.63;2.42;;;5.10;99.90;;;;;;5475957;26;20249;-73
2024/04/19 12:20:42;;;;;;;3.45;2.50;;;5.00;99.90;;;;;;5469851;26;20254;-73
2024/04/19 12:23:10;;;;;;;4.15;2.53;;;5.10;99.90;;;;;;5472090;26;20275;-73
2024/04/19 12:25:39;;;;;;;2.95;2.38;;;5.00;99.90;;;;;;5483027;26;20243;-73
2024/04/19 12:28:11;;;;;;;2.72;2.53;;;5.10;99.90;;;;;;5479830;26;20264;-74
2024/04/19 12:30:40;;;;;;;3.47;3.17;;;5.20;99.90;;;;;;5476913;26;20284;-74
2024/04/19 12:33:09;;;;;;;3.53;2.83;;;5.10;99.90;;;;;;5477194;26;20348;-73
2024/04/19 12:35:37;;;;;;;3.08;2.75;;;5.20;99.90;;;;;;5475003;26;20257;-74
2024/04/19 12:38:08;;;;;;;2.92;2.63;;;5.20;99.90;;;;;;5478205;26;20276;-74
2024/04/19 12:40:37;;;;;;;2.45;2.25;;;5.30;99.90;;;;;;5476650;26;20599;-74
2024/04/19 12:43:06;;;;;;;2.30;2.10;;;5.20;99.90;;;;;;5448110;26;20294;-73
2024/04/19 12:45:38;;;;;;;2.25;2.05;;;5.20;99.90;;;;;;5455374;26;20346;-73
2024/04/19 12:48:08;;;;;;;3.58;3.13;;;5.30;99.90;;;;;;5478212;26;20246;-73
2024/04/19 12:50:38;;;;;;;3.65;2.70;;;5.40;99.90;;;;;;5478833;26;20288;-74
2024/04/19 12:53:08;;;;;;;4.63;4.20;;;5.30;99.90;;;;;;5478638;26;20556;-73
2024/04/19 12:55:38;;;;;;;3.00;2.70;;;5.50;99.90;;;;;;5483472;26;20245;-73
2024/04/19 12:58:08;;;;;;;4.43;2.60;;;5.60;99.90;;;;;;5460959;26;20469;-73
2024/04/19 13:00:39;;;;;;;3.75;3.30;;;5.60;99.90;;;;;;5479169;26;20243;-73
2024/04/19 13:03:08;;;;;;;3.08;2.78;;;5.60;99.90;;;;;;5479635;26;20303;-74
2024/04/19 13:05:37;;;;;;;3.33;2.75;;;5.60;99.90;;;;;;5478818;26;20242;-73
2024/04/19 13:08:07;;;;;;;2.70;2.50;;;5.50;99.90;;;;;;5479329;26;20259;-75
2024/04/19 13:10:38;;;;;;;2.63;2.42;;;5.50;99.90;;;;;;5484518;26;20276;-73
2024/04/19 13:13:12;;;;;;;2.80;2.25;;;5.50;99.90;;;;;;5479483;26;20253;-73